Terminal Aerodrome Forecast
Issued by NWS Cleveland, OH

Home | Current Version | Previous Version | Text Only | Print | Product List | Glossary Off
Versions: 1 2 3 4 5 6 7 8 9 10 11 12 13 14 15 16 17 18 19 20 21 22 23 24 25 26 27 28 29 30 31 32 33 34

000
FTUS41 KCLE 210300 AAA
TAFCLE
TAF AMD
KCLE 210301Z 2103/2206 20011KT P6SM SCT050 OVC100
      TEMPO 2103/2105 5SM -RA BR BKN035
     FM210900 22012KT 6SM -SHRA SCT020 BKN040
     FM211500 26014KT P6SM VCSH BKN035
     FM212000 30015G22KT P6SM VCSH BKN035
     FM220100 33012KT P6SM VCSH BKN030=

USA.gov is the U.S. government's official web portal to all federal, state and local government web resources and services.